createdAt,value
2023-01-29T00:00:10.952Z,93492.34
2023-01-29T00:03:17.664Z,93492.38
2023-01-29T00:06:21.302Z,93495.66
2023-01-29T00:09:24.882Z,93487.84
2023-01-29T00:12:29.012Z,93482.97
2023-01-29T00:15:32.636Z,93482.13
2023-01-29T00:18:39.971Z,93490.78
2023-01-29T00:21:44.056Z,93484.91
2023-01-29T00:24:47.230Z,93483.00
2023-01-29T00:27:51.120Z,93477.13
2023-01-29T00:30:56.557Z,93485.50
2023-01-29T00:33:59.719Z,93480.03
2023-01-29T00:37:05.756Z,93477.09
2023-01-29T00:40:09.755Z,93484.47
2023-01-29T00:43:32.371Z,93485.34
2023-01-29T00:46:35.337Z,93480.00
2023-01-29T00:49:39.608Z,93486.91
2023-01-29T00:52:43.543Z,93481.59
2023-01-29T00:55:46.898Z,93482.03
2023-01-29T00:58:50.077Z,93489.25
2023-01-29T01:02:12.455Z,93485.72
2023-01-29T01:05:21.407Z,93490.25
2023-01-29T01:08:42.914Z,93494.50
2023-01-29T01:11:46.488Z,93484.66
2023-01-29T01:14:51.035Z,93489.91
2023-01-29T01:18:00.145Z,93481.50
2023-01-29T01:21:03.522Z,93484.78
2023-01-29T01:24:06.689Z,93482.22
2023-01-29T01:27:10.308Z,93477.91
2023-01-29T01:30:16.885Z,93483.69
2023-01-29T01:33:21.106Z,93482.75
2023-01-29T01:36:24.802Z,93488.13
2023-01-29T01:39:28.826Z,93486.91
2023-01-29T01:42:32.667Z,93493.41
2023-01-29T01:45:37.543Z,93491.78
2023-01-29T01:48:40.972Z,93484.19
2023-01-29T01:51:49.778Z,93478.16
2023-01-29T01:54:53.695Z,93477.31
2023-01-29T01:58:09.823Z,93466.31
2023-01-29T02:01:13.448Z,93464.19
2023-01-29T02:04:43.793Z,93474.31
2023-01-29T02:08:08.665Z,93479.75
2023-01-29T02:11:11.515Z,93473.50
2023-01-29T02:14:14.399Z,93473.81
2023-01-29T02:17:20.514Z,93472.28
2023-01-29T02:20:27.800Z,93473.53
2023-01-29T02:23:36.617Z,93466.91
2023-01-29T02:26:56.898Z,93476.13
2023-01-29T02:30:17.975Z,93470.13
2023-01-29T02:33:31.761Z,93471.41
2023-01-29T02:36:47.797Z,93462.72
2023-01-29T02:40:10.419Z,93460.78
2023-01-29T02:43:26.010Z,93469.41
2023-01-29T02:47:02.257Z,93474.44
2023-01-29T02:50:22.995Z,93480.28
2023-01-29T02:54:03.312Z,93480.25
2023-01-29T02:57:22.323Z,93484.69
2023-01-29T03:00:35.797Z,93472.25
2023-01-29T03:03:46.340Z,93471.69
2023-01-29T03:06:55.109Z,93467.84
2023-01-29T03:09:58.814Z,93463.09
2023-01-29T03:13:30.290Z,93467.78
2023-01-29T03:16:39.880Z,93458.63
2023-01-29T03:19:47.842Z,93457.69
2023-01-29T03:23:03.327Z,93464.97
2023-01-29T03:26:25.900Z,93458.53
2023-01-29T03:29:59.139Z,93456.41
2023-01-29T03:33:20.209Z,93458.16
2023-01-29T03:36:38.566Z,93457.91
2023-01-29T03:39:43.002Z,93456.00
2023-01-29T03:43:08.979Z,93450.56
2023-01-29T03:46:48.892Z,93449.25
2023-01-29T03:50:06.131Z,93433.16
2023-01-29T03:53:13.915Z,93434.84
2023-01-29T03:56:41.754Z,93432.66
2023-01-29T04:00:23.812Z,93426.28
2023-01-29T04:03:44.856Z,93428.19
2023-01-29T04:06:51.727Z,93425.19
2023-01-29T04:10:08.647Z,93423.81
2023-01-29T04:13:16.264Z,93420.69
2023-01-29T04:16:30.115Z,93414.81
2023-01-29T04:19:55.973Z,93415.09
2023-01-29T04:22:59.720Z,93411.50
2023-01-29T04:26:40.484Z,93416.38
2023-01-29T04:29:58.822Z,93404.81
2023-01-29T04:33:20.579Z,93406.63
2023-01-29T04:36:39.015Z,93406.63
2023-01-29T04:39:49.456Z,93412.63
2023-01-29T04:43:10.320Z,93408.72
2023-01-29T04:46:22.405Z,93404.63
2023-01-29T04:49:31.591Z,93408.72
2023-01-29T04:53:05.749Z,93417.81
2023-01-29T04:56:19.460Z,93416.44
2023-01-29T04:59:46.854Z,93422.00
2023-01-29T05:02:50.112Z,93408.75
2023-01-29T05:05:55.226Z,93416.56
2023-01-29T05:08:58.574Z,93415.09
2023-01-29T05:12:03.408Z,93423.53
2023-01-29T05:15:13.560Z,93423.88
2023-01-29T05:18:17.296Z,93426.22
2023-01-29T05:21:23.603Z,93424.78
2023-01-29T05:24:27.699Z,93421.59
2023-01-29T05:27:54.380Z,93417.78
2023-01-29T05:30:58.999Z,93419.22
2023-01-29T05:34:02.703Z,93412.56
2023-01-29T05:37:10.903Z,93415.31
2023-01-29T05:40:14.840Z,93412.31
2023-01-29T05:43:21.363Z,93405.50
2023-01-29T05:46:25.861Z,93418.53
2023-01-29T05:49:30.142Z,93411.25
2023-01-29T05:52:36.861Z,93401.47
2023-01-29T05:55:46.486Z,93407.06
2023-01-29T05:58:50.101Z,93406.09
2023-01-29T06:01:54.129Z,93411.09
2023-01-29T06:04:58.439Z,93407.03
2023-01-29T06:08:02.360Z,93408.03
2023-01-29T06:11:09.555Z,93416.81
2023-01-29T06:14:13.549Z,93416.00
2023-01-29T06:17:17.177Z,93422.22
2023-01-29T06:20:21.218Z,93422.50
2023-01-29T06:23:24.876Z,93416.03
2023-01-29T06:26:28.957Z,93419.66
2023-01-29T06:29:32.706Z,93419.31
2023-01-29T06:32:35.791Z,93427.34
2023-01-29T06:35:39.632Z,93422.16
2023-01-29T06:38:43.336Z,93418.66
2023-01-29T06:41:46.978Z,93416.78
2023-01-29T06:44:51.047Z,93423.59
2023-01-29T06:47:54.598Z,93426.94
2023-01-29T06:51:03.303Z,93435.66
2023-01-29T06:54:08.854Z,93438.19
2023-01-29T06:57:12.923Z,93430.81
2023-01-29T07:00:17.812Z,93432.34
2023-01-29T07:03:21.991Z,93431.53
2023-01-29T07:06:30.182Z,93440.09
2023-01-29T07:09:33.473Z,93432.94
2023-01-29T07:12:37.438Z,93445.00
2023-01-29T07:15:41.282Z,93444.06
2023-01-29T07:18:44.537Z,93445.91
2023-01-29T07:21:48.694Z,93448.03
2023-01-29T07:24:52.279Z,93448.66
2023-01-29T07:27:56.023Z,93443.06
2023-01-29T07:31:00.118Z,93451.00
2023-01-29T07:34:08.827Z,93454.75
2023-01-29T07:37:12.549Z,93451.91
2023-01-29T07:40:16.483Z,93458.72
2023-01-29T07:43:19.802Z,93457.84
2023-01-29T07:46:23.142Z,93460.53
2023-01-29T07:49:26.067Z,93455.13
2023-01-29T07:52:34.312Z,93456.03
2023-01-29T07:55:37.205Z,93456.97
2023-01-29T07:58:40.579Z,93457.91
2023-01-29T08:01:43.730Z,93457.03
2023-01-29T08:04:47.283Z,93460.38
2023-01-29T08:08:06.082Z,93455.63
2023-01-29T08:11:10.422Z,93456.75
2023-01-29T08:14:14.339Z,93455.50
2023-01-29T08:17:19.589Z,93446.75
2023-01-29T08:20:25.021Z,93460.34
2023-01-29T08:23:28.226Z,93463.38
2023-01-29T08:26:31.223Z,93455.38
2023-01-29T08:29:34.145Z,93466.22
2023-01-29T08:32:38.143Z,93469.34
2023-01-29T08:35:42.013Z,93469.34
2023-01-29T08:38:46.202Z,93475.66
2023-01-29T08:41:49.824Z,93481.09
2023-01-29T08:44:53.950Z,93482.38
2023-01-29T08:47:57.475Z,93486.78
2023-01-29T08:51:03.138Z,93484.25
2023-01-29T08:54:06.907Z,93493.56
2023-01-29T08:57:10.529Z,93494.28
2023-01-29T09:00:15.890Z,93499.72
2023-01-29T09:03:19.802Z,93499.22
2023-01-29T09:06:23.417Z,93508.81
2023-01-29T09:09:27.018Z,93505.66
2023-01-29T09:12:31.305Z,93502.31
2023-01-29T09:15:34.942Z,93504.31
2023-01-29T09:18:38.906Z,93513.56
2023-01-29T09:21:42.760Z,93511.91
2023-01-29T09:24:48.394Z,93509.88
2023-01-29T09:27:51.554Z,93519.25
2023-01-29T09:30:55.306Z,93521.41
2023-01-29T09:33:58.353Z,93529.63
2023-01-29T09:37:02.237Z,93528.91
2023-01-29T09:40:05.593Z,93527.34
2023-01-29T09:43:48.770Z,93536.75
2023-01-29T09:46:53.587Z,93542.84
2023-01-29T09:50:06.279Z,93527.63
2023-01-29T09:53:46.205Z,93536.22
2023-01-29T09:56:55.069Z,93543.59
2023-01-29T09:59:58.829Z,93557.72
2023-01-29T10:03:08.891Z,93557.63
2023-01-29T10:06:27.926Z,93564.19
2023-01-29T10:10:04.969Z,93571.22
2023-01-29T10:13:20.662Z,93563.16
2023-01-29T10:16:52.342Z,93562.31
2023-01-29T10:20:23.987Z,93555.69
2023-01-29T10:23:31.921Z,93552.97
2023-01-29T10:26:38.632Z,93550.50
2023-01-29T10:29:44.955Z,93551.66
2023-01-29T10:32:52.094Z,93557.81
2023-01-29T10:36:01.693Z,93559.06
2023-01-29T10:39:06.893Z,93562.22
2023-01-29T10:42:19.944Z,93560.72
2023-01-29T10:45:31.437Z,93557.88
2023-01-29T10:48:37.822Z,93568.03
2023-01-29T10:51:56.854Z,93563.13
2023-01-29T10:55:20.721Z,93570.75
2023-01-29T10:58:42.472Z,93578.03
2023-01-29T11:01:46.195Z,93580.03
2023-01-29T11:04:49.902Z,93585.66
2023-01-29T11:08:22.538Z,93586.44
2023-01-29T11:11:46.158Z,93582.34
2023-01-29T11:14:54.861Z,93574.44
2023-01-29T11:18:03.919Z,93573.56
2023-01-29T11:21:07.465Z,93570.22
2023-01-29T11:24:20.900Z,93563.72
2023-01-29T11:27:30.145Z,93572.25
2023-01-29T11:30:40.736Z,93565.78
2023-01-29T11:33:45.934Z,93570.78
2023-01-29T11:37:03.145Z,93561.97
2023-01-29T11:40:19.623Z,93561.38
2023-01-29T11:43:33.954Z,93575.03
2023-01-29T11:46:40.680Z,93563.44
2023-01-29T11:49:51.196Z,93567.84
2023-01-29T11:52:55.752Z,93564.91
2023-01-29T11:55:59.331Z,93563.25
2023-01-29T11:59:05.099Z,93570.00
2023-01-29T12:02:20.655Z,93558.38
2023-01-29T12:05:25.963Z,93574.28
2023-01-29T12:08:36.303Z,93567.81
2023-01-29T12:11:40.023Z,93565.47
2023-01-29T12:14:45.134Z,93577.09
2023-01-29T12:18:06.623Z,93570.47
2023-01-29T12:21:29.073Z,93564.31
2023-01-29T12:24:53.884Z,93583.00
2023-01-29T12:28:30.059Z,93577.72
2023-01-29T12:31:54.852Z,93583.53
2023-01-29T12:35:27.025Z,93586.03
2023-01-29T12:38:31.208Z,93577.91
2023-01-29T12:41:56.586Z,93586.84
2023-01-29T12:45:03.640Z,93586.69
2023-01-29T12:48:12.304Z,93594.00
2023-01-29T12:51:25.114Z,93598.66
2023-01-29T12:54:49.683Z,93595.28
2023-01-29T12:58:25.410Z,93595.88
2023-01-29T13:01:39.725Z,93597.16
2023-01-29T13:04:48.832Z,93592.19
2023-01-29T13:07:59.197Z,93592.78
2023-01-29T13:11:11.401Z,93605.84
2023-01-29T13:14:41.615Z,93604.47
2023-01-29T13:17:50.628Z,93599.94
2023-01-29T13:20:55.470Z,93607.47
2023-01-29T13:24:05.179Z,93612.06
2023-01-29T13:27:18.377Z,93609.50
2023-01-29T13:30:34.635Z,93614.84
2023-01-29T13:33:38.681Z,93608.59
2023-01-29T13:36:50.991Z,93616.78
2023-01-29T13:39:56.373Z,93606.78
2023-01-29T13:43:00.619Z,93600.50
2023-01-29T13:46:14.024Z,93604.34
2023-01-29T13:49:27.820Z,93603.13
2023-01-29T13:52:46.271Z,93609.38
2023-01-29T13:55:49.752Z,93607.53
2023-01-29T13:58:54.911Z,93605.22
2023-01-29T14:02:03.271Z,93617.72
2023-01-29T14:05:30.998Z,93612.47
2023-01-29T14:08:38.728Z,93618.13
2023-01-29T14:11:49.160Z,93603.03
2023-01-29T14:15:26.896Z,93603.16
2023-01-29T14:18:32.725Z,93594.59
2023-01-29T14:21:39.504Z,93599.69
2023-01-29T14:24:43.690Z,93597.94
2023-01-29T14:27:50.731Z,93600.88
2023-01-29T14:30:54.497Z,93608.63
2023-01-29T14:34:04.198Z,93607.03
2023-01-29T14:37:16.332Z,93603.91
2023-01-29T14:40:20.412Z,93609.44
2023-01-29T14:43:24.161Z,93601.78
2023-01-29T14:46:36.362Z,93608.97
2023-01-29T14:49:54.511Z,93613.50
2023-01-29T14:53:06.452Z,93613.59
2023-01-29T14:56:15.588Z,93609.63
2023-01-29T14:59:38.456Z,93612.13
2023-01-29T15:02:46.090Z,93600.47
2023-01-29T15:05:51.775Z,93603.41
2023-01-29T15:09:05.183Z,93619.22
2023-01-29T15:12:43.122Z,93617.38
2023-01-29T15:15:54.928Z,93610.53
2023-01-29T15:19:16.401Z,93610.34
2023-01-29T15:22:22.423Z,93607.47
2023-01-29T15:25:27.413Z,93621.50
2023-01-29T15:28:32.658Z,93613.00
2023-01-29T15:31:36.429Z,93609.28
2023-01-29T15:34:44.452Z,93611.31
2023-01-29T15:38:03.335Z,93609.47
2023-01-29T15:41:21.295Z,93606.06
2023-01-29T15:44:25.311Z,93609.00
2023-01-29T15:47:33.105Z,93605.78
2023-01-29T15:50:40.851Z,93602.63
2023-01-29T15:53:49.557Z,93601.28
2023-01-29T15:56:54.576Z,93602.56
2023-01-29T15:59:59.447Z,93603.19
2023-01-29T16:03:15.917Z,93598.75
2023-01-29T16:06:19.921Z,93600.16
2023-01-29T16:09:28.463Z,93601.50
2023-01-29T16:12:35.309Z,93596.81
2023-01-29T16:15:41.306Z,93590.47
2023-01-29T16:18:59.555Z,93589.22
2023-01-29T16:22:07.271Z,93589.97
2023-01-29T16:25:16.551Z,93586.78
2023-01-29T16:28:20.572Z,93586.00
2023-01-29T16:31:28.230Z,93586.00
2023-01-29T16:34:35.944Z,93585.50
2023-01-29T16:37:39.913Z,93587.53
2023-01-29T16:41:15.140Z,93596.97
2023-01-29T16:44:21.857Z,93587.09
2023-01-29T16:47:28.695Z,93586.97
2023-01-29T16:50:40.503Z,93591.75
2023-01-29T16:53:57.309Z,93594.28
2023-01-29T16:57:02.511Z,93595.66
2023-01-29T17:00:09.306Z,93589.34
2023-01-29T17:03:15.229Z,93584.22
2023-01-29T17:06:26.870Z,93585.09
2023-01-29T17:09:34.651Z,93587.38
2023-01-29T17:12:39.082Z,93592.59
2023-01-29T17:15:44.043Z,93600.16
2023-01-29T17:18:47.691Z,93590.28
2023-01-29T17:21:52.146Z,93582.50
2023-01-29T17:24:55.828Z,93593.28
2023-01-29T17:28:02.729Z,93601.47
2023-01-29T17:31:08.354Z,93594.22
2023-01-29T17:34:16.760Z,93588.25
2023-01-29T17:37:20.706Z,93591.03
2023-01-29T17:40:32.365Z,93587.47
2023-01-29T17:43:36.110Z,93580.91
2023-01-29T17:46:40.528Z,93581.19
2023-01-29T17:49:44.494Z,93583.91
2023-01-29T17:52:47.692Z,93593.81
2023-01-29T17:55:51.279Z,93589.31
2023-01-29T17:58:55.335Z,93595.06
2023-01-29T18:01:59.330Z,93597.28
2023-01-29T18:05:03.662Z,93600.28
2023-01-29T18:08:06.696Z,93597.50
2023-01-29T18:11:13.385Z,93600.03
2023-01-29T18:14:16.746Z,93600.31
2023-01-29T18:17:23.281Z,93602.53
2023-01-29T18:20:26.511Z,93600.78
2023-01-29T18:23:32.126Z,93587.69
2023-01-29T18:26:36.537Z,93577.03
2023-01-29T18:29:40.114Z,93575.03
2023-01-29T18:32:43.001Z,93573.00
2023-01-29T18:35:48.945Z,93580.91
2023-01-29T18:38:52.606Z,93587.16
2023-01-29T18:41:56.078Z,93600.56
2023-01-29T18:44:59.322Z,93592.63
2023-01-29T18:48:03.505Z,93586.72
2023-01-29T18:51:06.615Z,93579.31
2023-01-29T18:54:13.730Z,93591.41
2023-01-29T18:58:25.991Z,93597.31
2023-01-29T19:00:41.402Z,93602.72
2023-01-29T19:03:45.223Z,93610.09
2023-01-29T19:06:49.621Z,93614.00
2023-01-29T19:09:53.103Z,93616.75
2023-01-29T19:12:57.274Z,93621.25
2023-01-29T19:16:00.337Z,93610.84
2023-01-29T19:19:04.469Z,93606.28
2023-01-29T19:22:08.486Z,93607.22
2023-01-29T19:25:13.495Z,93599.09
2023-01-29T19:28:16.449Z,93599.97
2023-01-29T19:31:20.355Z,93588.13
2023-01-29T19:34:24.541Z,93581.72
2023-01-29T19:37:28.714Z,93580.34
2023-01-29T19:40:32.261Z,93571.97
2023-01-29T19:43:36.299Z,93570.50
2023-01-29T19:46:39.556Z,93566.06
2023-01-29T19:49:44.030Z,93566.78
2023-01-29T19:52:51.518Z,93565.00
2023-01-29T19:56:05.514Z,93557.63
2023-01-29T19:59:08.383Z,93553.72
2023-01-29T20:02:12.362Z,93562.06
2023-01-29T20:05:18.892Z,93563.59
2023-01-29T20:08:24.660Z,93545.31
2023-01-29T20:11:28.307Z,93543.38
2023-01-29T20:14:31.607Z,93538.91
2023-01-29T20:17:34.579Z,93545.88
2023-01-29T20:20:49.699Z,93544.91
2023-01-29T20:23:53.021Z,93544.63
2023-01-29T20:26:56.987Z,93548.25
2023-01-29T20:30:00.315Z,93546.81
2023-01-29T20:33:04.540Z,93547.69
2023-01-29T20:36:10.790Z,93543.19
2023-01-29T20:39:14.098Z,93534.84
2023-01-29T20:42:17.681Z,93535.09
2023-01-29T20:45:22.833Z,93531.56
2023-01-29T20:48:26.616Z,93527.50
2023-01-29T20:51:31.723Z,93510.03
2023-01-29T20:54:35.808Z,93517.47
2023-01-29T20:57:40.099Z,93514.78
2023-01-29T21:00:45.345Z,93516.06
2023-01-29T21:03:49.401Z,93511.41
2023-01-29T21:06:53.178Z,93510.56
2023-01-29T21:09:56.863Z,93509.38
2023-01-29T21:13:00.830Z,93515.75
2023-01-29T21:16:05.364Z,93510.09
2023-01-29T21:19:10.317Z,93499.84
2023-01-29T21:22:14.332Z,93506.03
2023-01-29T21:25:21.018Z,93499.50
2023-01-29T21:28:24.266Z,93504.56
2023-01-29T21:31:28.319Z,93505.28
2023-01-29T21:34:32.086Z,93489.56
2023-01-29T21:37:38.731Z,93496.00
2023-01-29T21:40:42.325Z,93498.31
2023-01-29T21:43:46.369Z,93501.88
2023-01-29T21:46:49.843Z,93496.56
2023-01-29T21:49:54.052Z,93500.34
2023-01-29T21:52:57.747Z,93498.69
2023-01-29T21:56:06.862Z,93505.66
2023-01-29T21:59:11.992Z,93497.03
2023-01-29T22:02:16.731Z,93502.34
2023-01-29T22:05:20.657Z,93490.59
2023-01-29T22:08:24.643Z,93493.63
2023-01-29T22:11:28.296Z,93488.66
2023-01-29T22:14:32.311Z,93481.38
2023-01-29T22:17:35.974Z,93494.91
2023-01-29T22:20:39.568Z,93488.72
2023-01-29T22:23:43.222Z,93485.22
2023-01-29T22:26:48.545Z,93484.53
2023-01-29T22:29:52.280Z,93479.38
2023-01-29T22:32:55.969Z,93478.69
2023-01-29T22:35:59.688Z,93471.03
2023-01-29T22:39:04.385Z,93468.91
2023-01-29T22:42:08.464Z,93471.53
2023-01-29T22:45:12.858Z,93477.66
2023-01-29T22:48:16.577Z,93470.47
2023-01-29T22:51:19.842Z,93477.69
2023-01-29T22:54:23.402Z,93486.41
2023-01-29T22:57:27.336Z,93486.19
2023-01-29T23:00:30.561Z,93480.16
2023-01-29T23:03:35.292Z,93487.13
2023-01-29T23:06:38.901Z,93497.53
2023-01-29T23:09:42.959Z,93479.25
2023-01-29T23:12:46.609Z,93484.00
2023-01-29T23:16:00.255Z,93486.84
2023-01-29T23:19:03.633Z,93496.41
2023-01-29T23:22:07.564Z,93489.66
2023-01-29T23:25:11.293Z,93486.13
2023-01-29T23:28:15.626Z,93489.19
2023-01-29T23:31:19.080Z,93489.19
2023-01-29T23:34:23.288Z,93484.38
2023-01-29T23:37:27.251Z,93475.66
2023-01-29T23:40:31.153Z,93472.69
2023-01-29T23:43:35.129Z,93473.75
2023-01-29T23:46:38.453Z,93471.94
2023-01-29T23:49:42.145Z,93471.38
2023-01-29T23:52:46.093Z,93478.91
2023-01-29T23:55:58.975Z,93464.91
2023-01-29T23:59:02.952Z,93489.16
